sensor_id;sensor_type;location;lat;lon;timestamp;P1;durP1;ratioP1;P2;durP2;ratioP2
61015;SDS011;46902;52.920;6.536;2022-10-16T00:01:19;6.38;;;1.70;;
61015;SDS011;46902;52.920;6.536;2022-10-16T00:03:47;7.47;;;1.67;;
61015;SDS011;46902;52.920;6.536;2022-10-16T00:06:14;7.95;;;1.23;;
61015;SDS011;46902;52.920;6.536;2022-10-16T00:08:42;9.18;;;1.90;;
61015;SDS011;46902;52.920;6.536;2022-10-16T00:11:12;6.20;;;1.52;;
61015;SDS011;46902;52.920;6.536;2022-10-16T00:13:48;6.50;;;1.75;;
61015;SDS011;46902;52.920;6.536;2022-10-16T00:16:16;8.13;;;1.70;;
61015;SDS011;46902;52.920;6.536;2022-10-16T00:18:42;7.47;;;1.48;;
61015;SDS011;46902;52.920;6.536;2022-10-16T00:23:36;7.00;;;1.55;;
61015;SDS011;46902;52.920;6.536;2022-10-16T00:26:02;6.38;;;1.60;;
61015;SDS011;46902;52.920;6.536;2022-10-16T00:28:31;11.07;;;1.80;;
61015;SDS011;46902;52.920;6.536;2022-10-16T00:30:57;7.43;;;1.30;;
61015;SDS011;46902;52.920;6.536;2022-10-16T00:33:22;6.35;;;1.63;;
61015;SDS011;46902;52.920;6.536;2022-10-16T00:35:48;6.00;;;1.40;;
61015;SDS011;46902;52.920;6.536;2022-10-16T00:38:14;6.10;;;1.30;;
61015;SDS011;46902;52.920;6.536;2022-10-16T00:40:39;6.47;;;1.65;;
61015;SDS011;46902;52.920;6.536;2022-10-16T00:43:32;6.47;;;1.33;;
61015;SDS011;46902;52.920;6.536;2022-10-16T00:46:04;6.65;;;1.75;;
61015;SDS011;46902;52.920;6.536;2022-10-16T00:48:35;6.70;;;1.52;;
61015;SDS011;46902;52.920;6.536;2022-10-16T00:51:01;6.35;;;1.58;;
61015;SDS011;46902;52.920;6.536;2022-10-16T00:53:27;7.68;;;1.45;;
61015;SDS011;46902;52.920;6.536;2022-10-16T00:55:53;6.05;;;1.33;;
61015;SDS011;46902;52.920;6.536;2022-10-16T00:58:19;5.63;;;1.17;;
61015;SDS011;46902;52.920;6.536;2022-10-16T01:00:45;12.15;;;1.70;;
61015;SDS011;46902;52.920;6.536;2022-10-16T01:03:30;9.13;;;1.88;;
61015;SDS011;46902;52.920;6.536;2022-10-16T01:06:04;9.32;;;1.55;;
61015;SDS011;46902;52.920;6.536;2022-10-16T01:08:39;5.40;;;1.25;;
61015;SDS011;46902;52.920;6.536;2022-10-16T01:11:22;9.80;;;1.70;;
61015;SDS011;46902;52.920;6.536;2022-10-16T01:14:06;5.82;;;1.27;;
61015;SDS011;46902;52.920;6.536;2022-10-16T01:16:46;4.35;;;1.38;;
61015;SDS011;46902;52.920;6.536;2022-10-16T01:19:26;6.07;;;1.70;;
61015;SDS011;46902;52.920;6.536;2022-10-16T01:22:09;7.45;;;1.80;;
61015;SDS011;46902;52.920;6.536;2022-10-16T01:24:39;7.55;;;1.50;;
61015;SDS011;46902;52.920;6.536;2022-10-16T01:32:28;7.38;;;1.67;;
61015;SDS011;46902;52.920;6.536;2022-10-16T01:35:09;7.15;;;1.90;;
61015;SDS011;46902;52.920;6.536;2022-10-16T01:37:46;6.30;;;1.65;;
61015;SDS011;46902;52.920;6.536;2022-10-16T01:40:16;4.45;;;1.42;;
61015;SDS011;46902;52.920;6.536;2022-10-16T01:42:48;6.10;;;1.73;;
61015;SDS011;46902;52.920;6.536;2022-10-16T01:45:26;6.85;;;1.50;;
61015;SDS011;46902;52.920;6.536;2022-10-16T01:47:54;7.50;;;1.70;;
61015;SDS011;46902;52.920;6.536;2022-10-16T01:50:20;5.82;;;1.60;;
61015;SDS011;46902;52.920;6.536;2022-10-16T01:52:48;5.20;;;1.88;;
61015;SDS011;46902;52.920;6.536;2022-10-16T01:55:23;4.30;;;1.40;;
61015;SDS011;46902;52.920;6.536;2022-10-16T01:57:54;6.35;;;1.50;;
61015;SDS011;46902;52.920;6.536;2022-10-16T02:00:21;7.43;;;1.30;;
61015;SDS011;46902;52.920;6.536;2022-10-16T02:02:47;6.60;;;1.38;;
61015;SDS011;46902;52.920;6.536;2022-10-16T02:08:03;5.70;;;1.50;;
61015;SDS011;46902;52.920;6.536;2022-10-16T02:10:29;6.88;;;1.38;;
61015;SDS011;46902;52.920;6.536;2022-10-16T02:16:07;9.02;;;1.52;;
61015;SDS011;46902;52.920;6.536;2022-10-16T02:18:34;4.47;;;1.33;;
61015;SDS011;46902;52.920;6.536;2022-10-16T02:21:02;6.25;;;1.63;;
61015;SDS011;46902;52.920;6.536;2022-10-16T02:26:17;10.30;;;1.95;;
61015;SDS011;46902;52.920;6.536;2022-10-16T02:28:52;9.02;;;1.67;;
61015;SDS011;46902;52.920;6.536;2022-10-16T02:31:22;4.97;;;1.60;;
61015;SDS011;46902;52.920;6.536;2022-10-16T02:33:53;7.15;;;1.40;;
61015;SDS011;46902;52.920;6.536;2022-10-16T02:36:21;3.88;;;1.25;;
61015;SDS011;46902;52.920;6.536;2022-10-16T02:38:47;4.93;;;1.48;;
61015;SDS011;46902;52.920;6.536;2022-10-16T02:41:13;6.03;;;1.52;;
61015;SDS011;46902;52.920;6.536;2022-10-16T02:43:39;5.88;;;1.40;;
61015;SDS011;46902;52.920;6.536;2022-10-16T02:46:05;3.95;;;1.45;;
61015;SDS011;46902;52.920;6.536;2022-10-16T02:48:31;8.32;;;2.15;;
61015;SDS011;46902;52.920;6.536;2022-10-16T02:50:56;8.00;;;1.90;;
61015;SDS011;46902;52.920;6.536;2022-10-16T02:53:22;5.53;;;1.80;;
61015;SDS011;46902;52.920;6.536;2022-10-16T02:55:48;4.57;;;1.63;;
61015;SDS011;46902;52.920;6.536;2022-10-16T02:58:13;7.55;;;2.00;;
61015;SDS011;46902;52.920;6.536;2022-10-16T03:00:39;6.55;;;1.95;;
61015;SDS011;46902;52.920;6.536;2022-10-16T03:03:04;6.95;;;1.90;;
61015;SDS011;46902;52.920;6.536;2022-10-16T03:05:30;5.70;;;1.40;;
61015;SDS011;46902;52.920;6.536;2022-10-16T03:07:55;5.72;;;1.83;;
61015;SDS011;46902;52.920;6.536;2022-10-16T03:10:21;3.50;;;1.70;;
61015;SDS011;46902;52.920;6.536;2022-10-16T03:12:46;5.70;;;1.70;;
61015;SDS011;46902;52.920;6.536;2022-10-16T03:15:12;8.35;;;2.17;;
61015;SDS011;46902;52.920;6.536;2022-10-16T03:17:38;3.65;;;1.35;;
61015;SDS011;46902;52.920;6.536;2022-10-16T03:20:03;9.00;;;1.98;;
61015;SDS011;46902;52.920;6.536;2022-10-16T03:22:29;6.88;;;1.52;;
61015;SDS011;46902;52.920;6.536;2022-10-16T03:24:55;6.88;;;1.40;;
61015;SDS011;46902;52.920;6.536;2022-10-16T03:27:20;3.55;;;1.60;;
61015;SDS011;46902;52.920;6.536;2022-10-16T03:29:46;6.20;;;1.60;;
61015;SDS011;46902;52.920;6.536;2022-10-16T03:32:11;6.70;;;1.67;;
61015;SDS011;46902;52.920;6.536;2022-10-16T03:34:37;4.13;;;1.40;;
61015;SDS011;46902;52.920;6.536;2022-10-16T03:37:03;5.97;;;1.90;;
61015;SDS011;46902;52.920;6.536;2022-10-16T03:39:28;2.95;;;1.40;;
61015;SDS011;46902;52.920;6.536;2022-10-16T03:41:54;5.38;;;1.50;;
61015;SDS011;46902;52.920;6.536;2022-10-16T03:44:19;5.93;;;1.80;;
61015;SDS011;46902;52.920;6.536;2022-10-16T03:46:45;4.72;;;1.60;;
61015;SDS011;46902;52.920;6.536;2022-10-16T03:49:10;4.63;;;1.50;;
61015;SDS011;46902;52.920;6.536;2022-10-16T03:51:36;6.38;;;1.60;;
61015;SDS011;46902;52.920;6.536;2022-10-16T03:54:02;7.20;;;1.75;;
61015;SDS011;46902;52.920;6.536;2022-10-16T03:56:28;5.70;;;1.35;;
61015;SDS011;46902;52.920;6.536;2022-10-16T03:58:53;7.63;;;1.60;;
61015;SDS011;46902;52.920;6.536;2022-10-16T04:01:19;5.35;;;1.60;;
61015;SDS011;46902;52.920;6.536;2022-10-16T04:03:45;3.50;;;1.33;;
61015;SDS011;46902;52.920;6.536;2022-10-16T04:06:10;3.55;;;1.38;;
61015;SDS011;46902;52.920;6.536;2022-10-16T04:08:36;6.28;;;1.50;;
61015;SDS011;46902;52.920;6.536;2022-10-16T04:11:02;3.22;;;1.25;;
61015;SDS011;46902;52.920;6.536;2022-10-16T04:13:28;4.93;;;1.40;;
61015;SDS011;46902;52.920;6.536;2022-10-16T04:15:54;3.38;;;1.42;;
61015;SDS011;46902;52.920;6.536;2022-10-16T04:18:19;4.95;;;1.70;;
61015;SDS011;46902;52.920;6.536;2022-10-16T04:20:45;5.97;;;1.75;;
61015;SDS011;46902;52.920;6.536;2022-10-16T04:23:11;8.23;;;2.03;;
61015;SDS011;46902;52.920;6.536;2022-10-16T04:25:36;2.42;;;1.75;;
61015;SDS011;46902;52.920;6.536;2022-10-16T04:28:02;9.05;;;1.70;;
61015;SDS011;46902;52.920;6.536;2022-10-16T04:30:28;7.05;;;1.88;;
61015;SDS011;46902;52.920;6.536;2022-10-16T04:32:53;2.58;;;1.52;;
61015;SDS011;46902;52.920;6.536;2022-10-16T04:35:19;4.63;;;2.05;;
61015;SDS011;46902;52.920;6.536;2022-10-16T04:37:46;3.97;;;1.95;;
61015;SDS011;46902;52.920;6.536;2022-10-16T04:40:11;3.85;;;1.73;;
61015;SDS011;46902;52.920;6.536;2022-10-16T04:42:38;3.75;;;1.90;;
61015;SDS011;46902;52.920;6.536;2022-10-16T04:45:04;3.60;;;1.90;;
61015;SDS011;46902;52.920;6.536;2022-10-16T04:47:30;5.88;;;1.98;;
61015;SDS011;46902;52.920;6.536;2022-10-16T04:49:56;4.38;;;1.90;;
61015;SDS011;46902;52.920;6.536;2022-10-16T04:52:22;5.15;;;1.65;;
61015;SDS011;46902;52.920;6.536;2022-10-16T04:54:49;8.43;;;1.92;;
61015;SDS011;46902;52.920;6.536;2022-10-16T04:57:15;6.50;;;2.10;;
61015;SDS011;46902;52.920;6.536;2022-10-16T04:59:41;3.92;;;1.90;;
61015;SDS011;46902;52.920;6.536;2022-10-16T05:02:07;5.22;;;2.22;;
61015;SDS011;46902;52.920;6.536;2022-10-16T05:04:32;5.28;;;1.98;;
61015;SDS011;46902;52.920;6.536;2022-10-16T05:06:58;6.68;;;2.40;;
61015;SDS011;46902;52.920;6.536;2022-10-16T05:09:24;6.45;;;2.25;;
61015;SDS011;46902;52.920;6.536;2022-10-16T05:11:49;10.18;;;2.47;;
61015;SDS011;46902;52.920;6.536;2022-10-16T05:14:15;5.55;;;2.45;;
61015;SDS011;46902;52.920;6.536;2022-10-16T05:16:40;4.68;;;2.20;;
61015;SDS011;46902;52.920;6.536;2022-10-16T05:19:06;7.68;;;2.13;;
61015;SDS011;46902;52.920;6.536;2022-10-16T05:21:31;7.47;;;2.25;;
61015;SDS011;46902;52.920;6.536;2022-10-16T05:23:57;5.28;;;2.08;;
61015;SDS011;46902;52.920;6.536;2022-10-16T05:26:23;5.40;;;2.47;;
61015;SDS011;46902;52.920;6.536;2022-10-16T05:28:49;5.05;;;2.28;;
61015;SDS011;46902;52.920;6.536;2022-10-16T05:31:15;9.40;;;2.30;;
61015;SDS011;46902;52.920;6.536;2022-10-16T05:33:41;7.90;;;2.33;;
61015;SDS011;46902;52.920;6.536;2022-10-16T05:36:07;5.40;;;2.45;;
61015;SDS011;46902;52.920;6.536;2022-10-16T05:38:34;6.47;;;2.20;;
61015;SDS011;46902;52.920;6.536;2022-10-16T05:41:00;6.28;;;2.25;;
61015;SDS011;46902;52.920;6.536;2022-10-16T05:43:29;6.03;;;2.60;;
61015;SDS011;46902;52.920;6.536;2022-10-16T05:45:56;5.85;;;2.35;;
61015;SDS011;46902;52.920;6.536;2022-10-16T05:48:23;5.40;;;2.30;;
61015;SDS011;46902;52.920;6.536;2022-10-16T05:50:56;4.75;;;2.50;;
61015;SDS011;46902;52.920;6.536;2022-10-16T05:53:30;6.53;;;2.97;;
61015;SDS011;46902;52.920;6.536;2022-10-16T05:55:57;6.40;;;2.80;;
61015;SDS011;46902;52.920;6.536;2022-10-16T05:58:23;9.80;;;2.50;;
61015;SDS011;46902;52.920;6.536;2022-10-16T06:00:53;6.55;;;2.70;;
61015;SDS011;46902;52.920;6.536;2022-10-16T06:03:23;7.00;;;2.85;;
61015;SDS011;46902;52.920;6.536;2022-10-16T06:05:48;8.02;;;2.35;;
61015;SDS011;46902;52.920;6.536;2022-10-16T06:08:14;4.15;;;2.40;;
61015;SDS011;46902;52.920;6.536;2022-10-16T06:10:40;6.95;;;2.33;;
61015;SDS011;46902;52.920;6.536;2022-10-16T06:13:06;4.88;;;2.30;;
61015;SDS011;46902;52.920;6.536;2022-10-16T06:15:31;5.25;;;2.33;;
61015;SDS011;46902;52.920;6.536;2022-10-16T06:17:57;6.03;;;2.30;;
61015;SDS011;46902;52.920;6.536;2022-10-16T06:20:22;4.95;;;2.55;;
61015;SDS011;46902;52.920;6.536;2022-10-16T06:22:48;8.48;;;2.33;;
61015;SDS011;46902;52.920;6.536;2022-10-16T06:25:13;6.40;;;2.13;;
61015;SDS011;46902;52.920;6.536;2022-10-16T06:27:39;10.40;;;2.65;;
61015;SDS011;46902;52.920;6.536;2022-10-16T06:30:06;4.53;;;2.05;;
61015;SDS011;46902;52.920;6.536;2022-10-16T06:32:32;6.00;;;2.03;;
61015;SDS011;46902;52.920;6.536;2022-10-16T06:34:58;6.55;;;2.17;;
61015;SDS011;46902;52.920;6.536;2022-10-16T06:37:23;4.15;;;1.90;;
61015;SDS011;46902;52.920;6.536;2022-10-16T06:39:49;7.03;;;2.28;;
61015;SDS011;46902;52.920;6.536;2022-10-16T06:42:17;5.60;;;2.28;;
61015;SDS011;46902;52.920;6.536;2022-10-16T06:44:43;5.25;;;1.70;;
61015;SDS011;46902;52.920;6.536;2022-10-16T06:47:08;6.13;;;1.75;;
61015;SDS011;46902;52.920;6.536;2022-10-16T06:49:34;5.43;;;2.15;;
61015;SDS011;46902;52.920;6.536;2022-10-16T06:52:00;5.70;;;2.20;;
61015;SDS011;46902;52.920;6.536;2022-10-16T06:54:26;5.20;;;2.00;;
61015;SDS011;46902;52.920;6.536;2022-10-16T06:56:52;5.55;;;2.10;;
61015;SDS011;46902;52.920;6.536;2022-10-16T06:59:19;6.78;;;1.67;;
61015;SDS011;46902;52.920;6.536;2022-10-16T07:01:45;8.23;;;2.25;;
61015;SDS011;46902;52.920;6.536;2022-10-16T07:04:11;5.53;;;1.65;;
61015;SDS011;46902;52.920;6.536;2022-10-16T07:06:36;6.03;;;1.83;;
61015;SDS011;46902;52.920;6.536;2022-10-16T07:09:03;4.25;;;1.98;;
61015;SDS011;46902;52.920;6.536;2022-10-16T07:11:31;8.90;;;2.08;;
61015;SDS011;46902;52.920;6.536;2022-10-16T07:13:56;6.10;;;1.88;;
61015;SDS011;46902;52.920;6.536;2022-10-16T07:16:23;6.13;;;1.75;;
61015;SDS011;46902;52.920;6.536;2022-10-16T07:18:51;3.83;;;1.60;;
61015;SDS011;46902;52.920;6.536;2022-10-16T07:21:22;4.53;;;1.60;;
61015;SDS011;46902;52.920;6.536;2022-10-16T07:23:54;5.38;;;1.85;;
61015;SDS011;46902;52.920;6.536;2022-10-16T07:26:21;3.42;;;1.70;;
61015;SDS011;46902;52.920;6.536;2022-10-16T07:28:48;4.00;;;1.90;;
61015;SDS011;46902;52.920;6.536;2022-10-16T07:31:14;4.90;;;1.40;;
61015;SDS011;46902;52.920;6.536;2022-10-16T07:33:41;8.35;;;1.98;;
61015;SDS011;46902;52.920;6.536;2022-10-16T07:36:09;6.75;;;2.10;;
61015;SDS011;46902;52.920;6.536;2022-10-16T07:38:35;5.65;;;1.73;;
61015;SDS011;46902;52.920;6.536;2022-10-16T07:41:05;7.75;;;1.70;;
61015;SDS011;46902;52.920;6.536;2022-10-16T07:43:32;5.22;;;1.52;;
61015;SDS011;46902;52.920;6.536;2022-10-16T07:45:58;5.50;;;1.70;;
61015;SDS011;46902;52.920;6.536;2022-10-16T07:48:26;4.57;;;1.48;;
61015;SDS011;46902;52.920;6.536;2022-10-16T07:50:57;5.88;;;1.70;;
61015;SDS011;46902;52.920;6.536;2022-10-16T07:53:24;7.97;;;1.65;;
61015;SDS011;46902;52.920;6.536;2022-10-16T07:55:50;6.13;;;2.20;;
61015;SDS011;46902;52.920;6.536;2022-10-16T07:58:15;4.93;;;1.65;;
61015;SDS011;46902;52.920;6.536;2022-10-16T08:00:41;4.55;;;1.40;;
61015;SDS011;46902;52.920;6.536;2022-10-16T08:03:07;4.35;;;1.33;;
61015;SDS011;46902;52.920;6.536;2022-10-16T08:05:33;8.98;;;1.60;;
61015;SDS011;46902;52.920;6.536;2022-10-16T08:07:59;7.22;;;1.20;;
61015;SDS011;46902;52.920;6.536;2022-10-16T08:10:26;6.25;;;1.13;;
61015;SDS011;46902;52.920;6.536;2022-10-16T08:12:52;7.38;;;1.33;;
61015;SDS011;46902;52.920;6.536;2022-10-16T08:15:18;6.45;;;1.52;;
61015;SDS011;46902;52.920;6.536;2022-10-16T08:17:44;6.90;;;1.30;;
61015;SDS011;46902;52.920;6.536;2022-10-16T08:20:18;3.67;;;1.02;;
61015;SDS011;46902;52.920;6.536;2022-10-16T08:22:44;5.22;;;1.35;;
61015;SDS011;46902;52.920;6.536;2022-10-16T08:25:09;3.80;;;0.70;;
61015;SDS011;46902;52.920;6.536;2022-10-16T08:27:35;5.47;;;0.95;;
61015;SDS011;46902;52.920;6.536;2022-10-16T08:30:00;4.55;;;0.93;;
61015;SDS011;46902;52.920;6.536;2022-10-16T08:32:26;2.95;;;0.68;;
61015;SDS011;46902;52.920;6.536;2022-10-16T08:34:51;6.13;;;0.90;;
61015;SDS011;46902;52.920;6.536;2022-10-16T08:37:17;4.43;;;0.98;;
61015;SDS011;46902;52.920;6.536;2022-10-16T08:39:42;4.13;;;0.70;;
61015;SDS011;46902;52.920;6.536;2022-10-16T08:48:04;6.95;;;1.27;;
61015;SDS011;46902;52.920;6.536;2022-10-16T08:50:35;5.88;;;1.27;;
61015;SDS011;46902;52.920;6.536;2022-10-16T08:53:03;3.60;;;1.00;;
61015;SDS011;46902;52.920;6.536;2022-10-16T08:58:48;5.68;;;1.20;;
61015;SDS011;46902;52.920;6.536;2022-10-16T09:00:59;6.32;;;1.48;;
61015;SDS011;46902;52.920;6.536;2022-10-16T09:11:48;7.50;;;1.55;;
61015;SDS011;46902;52.920;6.536;2022-10-16T09:17:03;9.70;;;1.88;;
61015;SDS011;46902;52.920;6.536;2022-10-16T09:19:45;7.43;;;1.92;;
61015;SDS011;46902;52.920;6.536;2022-10-16T09:22:16;8.13;;;1.98;;
61015;SDS011;46902;52.920;6.536;2022-10-16T09:24:42;6.85;;;1.58;;
61015;SDS011;46902;52.920;6.536;2022-10-16T09:27:12;7.18;;;1.40;;
61015;SDS011;46902;52.920;6.536;2022-10-16T09:29:39;12.57;;;2.00;;
61015;SDS011;46902;52.920;6.536;2022-10-16T09:32:15;6.95;;;1.80;;
61015;SDS011;46902;52.920;6.536;2022-10-16T09:34:48;5.85;;;1.52;;
61015;SDS011;46902;52.920;6.536;2022-10-16T09:37:17;8.98;;;1.92;;
61015;SDS011;46902;52.920;6.536;2022-10-16T09:39:48;12.27;;;1.58;;
61015;SDS011;46902;52.920;6.536;2022-10-16T09:42:31;10.02;;;2.28;;
61015;SDS011;46902;52.920;6.536;2022-10-16T09:44:59;7.40;;;1.70;;
61015;SDS011;46902;52.920;6.536;2022-10-16T09:47:26;6.20;;;1.55;;
61015;SDS011;46902;52.920;6.536;2022-10-16T09:49:58;7.28;;;1.63;;
61015;SDS011;46902;52.920;6.536;2022-10-16T09:52:44;10.68;;;2.25;;
61015;SDS011;46902;52.920;6.536;2022-10-16T09:55:14;6.75;;;1.48;;
61015;SDS011;46902;52.920;6.536;2022-10-16T09:57:51;7.57;;;2.05;;
61015;SDS011;46902;52.920;6.536;2022-10-16T10:00:17;7.80;;;1.80;;
61015;SDS011;46902;52.920;6.536;2022-10-16T10:02:44;9.70;;;1.92;;
61015;SDS011;46902;52.920;6.536;2022-10-16T10:05:17;12.75;;;1.95;;
61015;SDS011;46902;52.920;6.536;2022-10-16T10:07:53;10.73;;;2.33;;
61015;SDS011;46902;52.920;6.536;2022-10-16T10:10:25;8.68;;;2.03;;
61015;SDS011;46902;52.920;6.536;2022-10-16T10:12:53;11.70;;;1.90;;
61015;SDS011;46902;52.920;6.536;2022-10-16T10:15:20;9.75;;;1.95;;
61015;SDS011;46902;52.920;6.536;2022-10-16T10:17:53;8.25;;;2.20;;
61015;SDS011;46902;52.920;6.536;2022-10-16T10:20:24;12.85;;;1.98;;
61015;SDS011;46902;52.920;6.536;2022-10-16T10:22:52;9.80;;;1.73;;
61015;SDS011;46902;52.920;6.536;2022-10-16T10:25:23;12.55;;;2.35;;
61015;SDS011;46902;52.920;6.536;2022-10-16T10:30:45;9.68;;;1.83;;
61015;SDS011;46902;52.920;6.536;2022-10-16T10:33:18;13.27;;;2.25;;
61015;SDS011;46902;52.920;6.536;2022-10-16T10:36:12;9.52;;;1.55;;
61015;SDS011;46902;52.920;6.536;2022-10-16T10:50:14;9.32;;;2.00;;
61015;SDS011;46902;52.920;6.536;2022-10-16T10:55:59;9.68;;;1.80;;
61015;SDS011;46902;52.920;6.536;2022-10-16T11:07:24;10.23;;;1.90;;
61015;SDS011;46902;52.920;6.536;2022-10-16T11:09:58;11.93;;;2.50;;
61015;SDS011;46902;52.920;6.536;2022-10-16T11:12:29;14.60;;;2.47;;
61015;SDS011;46902;52.920;6.536;2022-10-16T11:15:11;12.07;;;2.90;;
61015;SDS011;46902;52.920;6.536;2022-10-16T11:17:43;11.18;;;2.10;;
61015;SDS011;46902;52.920;6.536;2022-10-16T11:20:18;8.65;;;1.73;;
61015;SDS011;46902;52.920;6.536;2022-10-16T11:25:22;10.90;;;1.98;;
61015;SDS011;46902;52.920;6.536;2022-10-16T11:28:13;11.35;;;2.28;;
61015;SDS011;46902;52.920;6.536;2022-10-16T11:30:59;9.70;;;2.05;;
61015;SDS011;46902;52.920;6.536;2022-10-16T11:33:31;10.35;;;1.65;;
61015;SDS011;46902;52.920;6.536;2022-10-16T11:41:31;13.63;;;2.42;;
61015;SDS011;46902;52.920;6.536;2022-10-16T11:44:22;9.23;;;2.00;;
61015;SDS011;46902;52.920;6.536;2022-10-16T11:49:41;11.93;;;1.77;;
61015;SDS011;46902;52.920;6.536;2022-10-16T11:57:30;7.65;;;1.83;;
61015;SDS011;46902;52.920;6.536;2022-10-16T12:00:00;9.43;;;1.98;;
61015;SDS011;46902;52.920;6.536;2022-10-16T12:05:19;8.90;;;2.05;;
61015;SDS011;46902;52.920;6.536;2022-10-16T12:07:59;8.77;;;1.83;;
61015;SDS011;46902;52.920;6.536;2022-10-16T12:10:41;9.68;;;1.90;;
61015;SDS011;46902;52.920;6.536;2022-10-16T12:16:07;13.00;;;2.50;;
61015;SDS011;46902;52.920;6.536;2022-10-16T12:18:39;11.85;;;2.15;;
61015;SDS011;46902;52.920;6.536;2022-10-16T12:21:06;10.23;;;2.10;;
61015;SDS011;46902;52.920;6.536;2022-10-16T12:23:54;10.55;;;1.90;;
61015;SDS011;46902;52.920;6.536;2022-10-16T12:26:26;11.27;;;2.10;;
61015;SDS011;46902;52.920;6.536;2022-10-16T12:28:55;10.85;;;2.35;;
61015;SDS011;46902;52.920;6.536;2022-10-16T12:31:22;7.80;;;1.58;;
61015;SDS011;46902;52.920;6.536;2022-10-16T12:33:55;9.02;;;1.75;;
61015;SDS011;46902;52.920;6.536;2022-10-16T12:36:29;9.30;;;2.13;;
61015;SDS011;46902;52.920;6.536;2022-10-16T12:38:57;10.45;;;1.88;;
61015;SDS011;46902;52.920;6.536;2022-10-16T12:41:30;9.60;;;1.67;;
61015;SDS011;46902;52.920;6.536;2022-10-16T12:43:57;9.98;;;1.85;;
61015;SDS011;46902;52.920;6.536;2022-10-16T12:49:05;8.35;;;2.00;;
61015;SDS011;46902;52.920;6.536;2022-10-16T12:51:46;9.30;;;1.73;;
61015;SDS011;46902;52.920;6.536;2022-10-16T12:54:16;10.40;;;2.00;;
61015;SDS011;46902;52.920;6.536;2022-10-16T13:02:21;6.70;;;1.73;;
61015;SDS011;46902;52.920;6.536;2022-10-16T13:18:38;11.70;;;2.28;;
61015;SDS011;46902;52.920;6.536;2022-10-16T13:21:45;10.13;;;1.77;;
61015;SDS011;46902;52.920;6.536;2022-10-16T13:29:31;6.85;;;1.80;;
61015;SDS011;46902;52.920;6.536;2022-10-16T13:31:58;9.57;;;2.25;;
61015;SDS011;46902;52.920;6.536;2022-10-16T13:34:25;9.85;;;1.73;;
61015;SDS011;46902;52.920;6.536;2022-10-16T13:36:52;8.30;;;1.83;;
61015;SDS011;46902;52.920;6.536;2022-10-16T13:39:25;12.15;;;2.50;;
61015;SDS011;46902;52.920;6.536;2022-10-16T13:42:03;11.07;;;2.28;;
61015;SDS011;46902;52.920;6.536;2022-10-16T13:44:35;12.95;;;2.10;;
61015;SDS011;46902;52.920;6.536;2022-10-16T13:47:05;8.95;;;2.03;;
61015;SDS011;46902;52.920;6.536;2022-10-16T13:49:39;11.35;;;2.40;;
61015;SDS011;46902;52.920;6.536;2022-10-16T13:52:05;10.90;;;2.22;;
61015;SDS011;46902;52.920;6.536;2022-10-16T13:54:30;11.13;;;2.17;;
61015;SDS011;46902;52.920;6.536;2022-10-16T13:56:56;6.20;;;1.58;;
61015;SDS011;46902;52.920;6.536;2022-10-16T13:59:34;12.88;;;2.10;;
61015;SDS011;46902;52.920;6.536;2022-10-16T14:02:00;8.07;;;1.80;;
61015;SDS011;46902;52.920;6.536;2022-10-16T14:04:39;8.15;;;2.08;;
61015;SDS011;46902;52.920;6.536;2022-10-16T14:07:05;13.68;;;2.20;;
61015;SDS011;46902;52.920;6.536;2022-10-16T14:09:39;8.23;;;2.13;;
61015;SDS011;46902;52.920;6.536;2022-10-16T14:12:09;19.10;;;2.97;;
61015;SDS011;46902;52.920;6.536;2022-10-16T14:14:41;16.42;;;2.60;;
61015;SDS011;46902;52.920;6.536;2022-10-16T14:17:26;12.18;;;2.45;;
61015;SDS011;46902;52.920;6.536;2022-10-16T14:19:54;11.30;;;2.33;;
61015;SDS011;46902;52.920;6.536;2022-10-16T14:22:30;11.75;;;2.45;;
61015;SDS011;46902;52.920;6.536;2022-10-16T14:25:08;11.70;;;2.25;;
61015;SDS011;46902;52.920;6.536;2022-10-16T14:27:45;14.80;;;2.47;;
61015;SDS011;46902;52.920;6.536;2022-10-16T14:30:22;9.80;;;2.20;;
61015;SDS011;46902;52.920;6.536;2022-10-16T14:32:54;15.52;;;2.40;;
61015;SDS011;46902;52.920;6.536;2022-10-16T14:35:35;15.13;;;2.95;;
61015;SDS011;46902;52.920;6.536;2022-10-16T14:38:03;13.00;;;2.53;;
61015;SDS011;46902;52.920;6.536;2022-10-16T14:40:45;11.50;;;2.33;;
61015;SDS011;46902;52.920;6.536;2022-10-16T14:43:24;12.90;;;2.40;;
61015;SDS011;46902;52.920;6.536;2022-10-16T14:45:56;12.65;;;2.42;;
61015;SDS011;46902;52.920;6.536;2022-10-16T14:48:22;10.93;;;2.58;;
61015;SDS011;46902;52.920;6.536;2022-10-16T14:50:48;13.65;;;2.40;;
61015;SDS011;46902;52.920;6.536;2022-10-16T14:53:14;9.75;;;2.30;;
61015;SDS011;46902;52.920;6.536;2022-10-16T14:55:40;7.82;;;1.75;;
61015;SDS011;46902;52.920;6.536;2022-10-16T14:58:17;11.50;;;2.20;;
61015;SDS011;46902;52.920;6.536;2022-10-16T15:00:47;11.00;;;2.45;;
61015;SDS011;46902;52.920;6.536;2022-10-16T15:03:14;12.50;;;1.92;;
61015;SDS011;46902;52.920;6.536;2022-10-16T15:05:40;12.40;;;2.15;;
61015;SDS011;46902;52.920;6.536;2022-10-16T15:08:05;9.70;;;2.30;;
61015;SDS011;46902;52.920;6.536;2022-10-16T15:10:32;12.65;;;2.58;;
61015;SDS011;46902;52.920;6.536;2022-10-16T15:13:03;14.47;;;2.10;;
61015;SDS011;46902;52.920;6.536;2022-10-16T15:17:59;11.60;;;2.60;;
61015;SDS011;46902;52.920;6.536;2022-10-16T15:20:30;10.98;;;2.13;;
61015;SDS011;46902;52.920;6.536;2022-10-16T15:22:59;12.77;;;2.55;;
61015;SDS011;46902;52.920;6.536;2022-10-16T15:27:55;14.98;;;2.40;;
61015;SDS011;46902;52.920;6.536;2022-10-16T15:30:20;15.95;;;2.78;;
61015;SDS011;46902;52.920;6.536;2022-10-16T15:32:46;11.93;;;2.55;;
61015;SDS011;46902;52.920;6.536;2022-10-16T15:35:11;15.40;;;2.67;;
61015;SDS011;46902;52.920;6.536;2022-10-16T15:37:37;14.27;;;2.60;;
61015;SDS011;46902;52.920;6.536;2022-10-16T15:40:02;11.85;;;2.20;;
61015;SDS011;46902;52.920;6.536;2022-10-16T15:42:28;9.13;;;2.20;;
61015;SDS011;46902;52.920;6.536;2022-10-16T15:44:54;11.18;;;2.03;;
61015;SDS011;46902;52.920;6.536;2022-10-16T15:47:19;13.15;;;2.00;;
61015;SDS011;46902;52.920;6.536;2022-10-16T15:49:45;16.10;;;2.25;;
61015;SDS011;46902;52.920;6.536;2022-10-16T15:52:11;12.82;;;2.47;;
61015;SDS011;46902;52.920;6.536;2022-10-16T15:54:36;14.10;;;2.20;;
61015;SDS011;46902;52.920;6.536;2022-10-16T15:57:02;13.40;;;2.47;;
61015;SDS011;46902;52.920;6.536;2022-10-16T15:59:28;12.45;;;2.40;;
61015;SDS011;46902;52.920;6.536;2022-10-16T16:01:53;13.00;;;2.55;;
61015;SDS011;46902;52.920;6.536;2022-10-16T16:04:19;13.15;;;2.60;;
61015;SDS011;46902;52.920;6.536;2022-10-16T16:06:44;15.35;;;2.53;;
61015;SDS011;46902;52.920;6.536;2022-10-16T16:09:11;10.68;;;2.38;;
61015;SDS011;46902;52.920;6.536;2022-10-16T16:11:38;9.48;;;2.22;;
61015;SDS011;46902;52.920;6.536;2022-10-16T16:14:07;15.90;;;2.53;;
61015;SDS011;46902;52.920;6.536;2022-10-16T16:16:37;15.07;;;2.78;;
61015;SDS011;46902;52.920;6.536;2022-10-16T16:19:04;17.08;;;2.80;;
61015;SDS011;46902;52.920;6.536;2022-10-16T16:21:31;13.32;;;2.80;;
61015;SDS011;46902;52.920;6.536;2022-10-16T16:23:57;11.45;;;2.78;;
61015;SDS011;46902;52.920;6.536;2022-10-16T16:26:27;11.80;;;2.58;;
61015;SDS011;46902;52.920;6.536;2022-10-16T16:28:57;13.57;;;2.75;;
61015;SDS011;46902;52.920;6.536;2022-10-16T16:31:24;16.67;;;2.70;;
61015;SDS011;46902;52.920;6.536;2022-10-16T16:33:50;11.60;;;2.40;;
61015;SDS011;46902;52.920;6.536;2022-10-16T16:36:16;15.25;;;2.78;;
61015;SDS011;46902;52.920;6.536;2022-10-16T16:38:43;12.63;;;2.50;;
61015;SDS011;46902;52.920;6.536;2022-10-16T16:41:16;14.50;;;3.85;;
61015;SDS011;46902;52.920;6.536;2022-10-16T16:43:47;15.88;;;3.90;;
61015;SDS011;46902;52.920;6.536;2022-10-16T16:46:13;13.75;;;3.75;;
61015;SDS011;46902;52.920;6.536;2022-10-16T16:48:39;14.88;;;4.32;;
61015;SDS011;46902;52.920;6.536;2022-10-16T16:51:06;14.75;;;4.93;;